Time;durP1;ratioP1;P1;durP2;ratioP2;P2;SDS_P1;SDS_P2;PMS_P1;PMS_P2;Temp;Humidity;BMP_temperature;BMP_pressure;BME280_temperature;BME280_humidity;BME280_pressure;Samples;Min_cycle;Max_cycle;Signal;HPM_P1;HPM_P2
2023/03/05 00:00:55;;;;;;;20.77;4.33;;;3.60;99.90;;;;;;5187119;28;20271;-53
2023/03/05 00:03:26;;;;;;;12.53;3.60;;;3.70;99.90;;;;;;5184028;28;20986;-53
2023/03/05 00:05:56;;;;;;;13.00;4.07;;;3.70;99.90;;;;;;5181025;28;20244;-52
2023/03/05 00:08:30;;;;;;;14.10;3.40;;;3.60;99.90;;;;;;5183710;28;20196;-52
2023/03/05 00:11:06;;;;;;;13.90;4.87;;;3.70;99.90;;;;;;5186344;28;20593;-52
2023/03/05 00:13:38;;;;;;;22.60;3.90;;;3.80;99.90;;;;;;5184770;28;20524;-52
2023/03/05 00:16:12;;;;;;;11.83;3.63;;;3.60;99.90;;;;;;5181653;28;20500;-52
2023/03/05 00:18:43;;;;;;;18.07;3.97;;;3.60;99.90;;;;;;5176100;28;20954;-52
2023/03/05 00:21:26;;;;;;;25.33;4.57;;;3.60;99.90;;;;;;5194410;28;20468;-52
2023/03/05 00:23:59;;;;;;;14.47;3.37;;;3.40;99.90;;;;;;5184573;28;20598;-52
2023/03/05 00:26:33;;;;;;;11.27;4.37;;;3.40;99.90;;;;;;5186588;28;20831;-52
2023/03/05 00:29:05;;;;;;;15.80;3.80;;;3.30;99.90;;;;;;5188340;28;20417;-53
2023/03/05 00:31:36;;;;;;;10.67;4.00;;;3.30;99.90;;;;;;5178094;28;20442;-52
2023/03/05 00:34:11;;;;;;;11.73;3.80;;;3.00;99.90;;;;;;5187295;28;20427;-52
2023/03/05 00:36:44;;;;;;;9.53;2.97;;;3.10;99.90;;;;;;5181182;28;20454;-52
2023/03/05 00:39:16;;;;;;;11.63;3.70;;;3.10;99.90;;;;;;5188285;28;20800;-53
2023/03/05 00:41:47;;;;;;;11.33;3.77;;;3.00;99.90;;;;;;5188910;28;20470;-52
2023/03/05 00:44:18;;;;;;;12.33;4.43;;;3.00;99.90;;;;;;5185766;28;20428;-52
2023/03/05 00:46:49;;;;;;;24.10;4.23;;;3.10;99.90;;;;;;5187775;28;21009;-52
2023/03/05 00:49:19;;;;;;;22.63;4.30;;;2.90;99.90;;;;;;5186316;28;20235;-53
2023/03/05 00:51:50;;;;;;;15.40;4.07;;;3.00;99.90;;;;;;5183056;28;20184;-52
2023/03/05 00:54:21;;;;;;;17.53;3.93;;;3.10;99.90;;;;;;5183323;28;20224;-52
2023/03/05 00:56:52;;;;;;;13.40;3.90;;;3.00;99.90;;;;;;5194383;28;20204;-51
2023/03/05 00:59:23;;;;;;;9.40;3.37;;;3.00;99.90;;;;;;5181041;28;20448;-52
2023/03/05 01:01:53;;;;;;;25.50;5.10;;;3.00;99.90;;;;;;5183550;28;20197;-52
2023/03/05 01:04:24;;;;;;;14.60;2.93;;;2.80;99.90;;;;;;5184218;28;20564;-51
2023/03/05 01:06:54;;;;;;;9.00;2.83;;;3.00;99.90;;;;;;5185183;28;20591;-51
2023/03/05 01:09:26;;;;;;;21.60;3.10;;;3.00;99.90;;;;;;5183838;28;20653;-53
2023/03/05 01:11:56;;;;;;;12.70;3.47;;;3.00;99.90;;;;;;5183778;28;20191;-52
2023/03/05 01:14:27;;;;;;;11.70;2.50;;;3.00;99.90;;;;;;5182760;28;20463;-51
2023/03/05 01:16:58;;;;;;;12.90;3.27;;;2.90;99.90;;;;;;5179781;28;20209;-53
2023/03/05 01:19:29;;;;;;;8.60;2.67;;;2.90;99.90;;;;;;5175920;28;20443;-51
2023/03/05 01:22:00;;;;;;;6.47;2.37;;;2.90;99.90;;;;;;5180672;28;20542;-51
2023/03/05 01:24:31;;;;;;;10.03;1.97;;;3.00;99.90;;;;;;5183035;28;20844;-51
2023/03/05 01:27:02;;;;;;;22.63;3.20;;;2.90;99.90;;;;;;5182133;28;20180;-52
2023/03/05 01:29:32;;;;;;;6.03;2.30;;;2.90;99.90;;;;;;5184578;28;20428;-52
2023/03/05 01:32:03;;;;;;;6.80;2.33;;;2.80;99.90;;;;;;5195737;28;20188;-52
2023/03/05 01:34:36;;;;;;;6.60;1.90;;;2.80;99.90;;;;;;5167450;28;20203;-53
2023/03/05 01:37:08;;;;;;;9.10;2.30;;;2.90;99.90;;;;;;5184236;28;20184;-52
2023/03/05 01:39:39;;;;;;;16.57;2.37;;;2.80;99.90;;;;;;5176687;28;20431;-51
2023/03/05 01:42:09;;;;;;;10.83;2.10;;;2.60;99.90;;;;;;5186178;28;20466;-52
2023/03/05 01:45:10;;;;;;;14.10;2.60;;;2.80;99.90;;;;;;5185763;28;20187;-53
2023/03/05 01:47:42;;;;;;;11.43;2.10;;;2.60;99.90;;;;;;5182744;28;20218;-50
2023/03/05 01:50:16;;;;;;;4.40;1.47;;;2.70;99.90;;;;;;5187235;28;20450;-52
2023/03/05 01:52:57;;;;;;;12.07;2.60;;;2.60;99.90;;;;;;5202871;28;20762;-51
2023/03/05 01:55:29;;;;;;;6.87;2.13;;;2.60;99.90;;;;;;5182413;28;20467;-53
2023/03/05 01:58:05;;;;;;;5.57;2.10;;;2.50;99.90;;;;;;5179372;28;20443;-52
2023/03/05 02:00:43;;;;;;;8.10;1.93;;;2.60;99.90;;;;;;5179517;28;20435;-50
2023/03/05 02:03:13;;;;;;;24.30;2.10;;;2.50;99.90;;;;;;5184309;28;20889;-52
2023/03/05 02:05:44;;;;;;;15.23;1.47;;;2.50;99.90;;;;;;5178843;28;20491;-51
2023/03/05 02:08:18;;;;;;;3.50;2.20;;;2.30;99.90;;;;;;5184001;28;20181;-51
2023/03/05 02:10:51;;;;;;;3.20;1.57;;;2.40;99.90;;;;;;5181014;28;20179;-51
2023/03/05 02:13:30;;;;;;;6.63;1.80;;;2.40;99.90;;;;;;5180326;28;21042;-52
2023/03/05 02:16:01;;;;;;;10.43;2.03;;;2.30;99.90;;;;;;5175637;28;20442;-51
2023/03/05 02:18:32;;;;;;;5.10;1.33;;;2.30;99.90;;;;;;5178277;28;20978;-51
2023/03/05 02:21:08;;;;;;;6.53;1.70;;;2.20;99.90;;;;;;5181162;28;20239;-50
2023/03/05 02:23:39;;;;;;;12.40;2.57;;;2.30;99.90;;;;;;5179643;28;20231;-51
2023/03/05 02:26:10;;;;;;;9.83;2.10;;;2.30;99.90;;;;;;5180080;28;20459;-51
2023/03/05 02:28:51;;;;;;;15.90;1.87;;;2.30;99.90;;;;;;5182630;28;20427;-51
2023/03/05 02:31:23;;;;;;;14.80;1.60;;;2.30;99.90;;;;;;5181981;28;20526;-50
2023/03/05 02:33:57;;;;;;;5.70;1.37;;;2.30;99.90;;;;;;5184965;28;20478;-52
2023/03/05 02:36:28;;;;;;;4.57;1.70;;;2.30;99.90;;;;;;5186047;28;20557;-52
2023/03/05 02:38:58;;;;;;;7.20;2.00;;;2.40;99.90;;;;;;5167574;28;20569;-52
2023/03/05 02:41:29;;;;;;;4.93;1.77;;;2.30;99.90;;;;;;5160583;28;20205;-51
2023/03/05 02:44:00;;;;;;;3.13;1.87;;;2.30;99.90;;;;;;5181212;28;20275;-52
2023/03/05 02:46:31;;;;;;;2.50;1.70;;;2.30;99.90;;;;;;5183214;28;20315;-51
2023/03/05 02:49:02;;;;;;;3.10;1.13;;;2.30;99.90;;;;;;5178865;28;20442;-52
2023/03/05 02:51:32;;;;;;;4.70;1.67;;;2.20;99.90;;;;;;5177779;28;20192;-51
2023/03/05 02:54:03;;;;;;;10.83;2.27;;;2.30;99.90;;;;;;5172331;28;20216;-51
2023/03/05 02:56:34;;;;;;;2.77;1.60;;;2.20;99.90;;;;;;5183315;28;20228;-52
2023/03/05 02:59:04;;;;;;;4.13;1.30;;;2.20;99.90;;;;;;5176171;28;20259;-52
2023/03/05 03:01:35;;;;;;;5.83;1.60;;;2.20;99.90;;;;;;5179842;28;20287;-51
2023/03/05 03:04:06;;;;;;;9.40;1.70;;;2.10;99.90;;;;;;5178977;28;20188;-51
2023/03/05 03:06:36;;;;;;;2.43;1.40;;;2.10;99.90;;;;;;5181534;28;20216;-51
2023/03/05 03:09:07;;;;;;;2.07;1.70;;;2.10;99.90;;;;;;5178895;28;20192;-52
2023/03/05 03:11:38;;;;;;;1.20;0.97;;;2.20;99.90;;;;;;5182827;28;20188;-51
2023/03/05 03:14:09;;;;;;;5.37;1.50;;;2.20;99.90;;;;;;5195135;28;20192;-52
2023/03/05 03:16:39;;;;;;;5.23;1.53;;;2.20;99.90;;;;;;5179180;28;20292;-52
2023/03/05 03:19:10;;;;;;;6.53;1.43;;;2.20;99.90;;;;;;5176190;28;20637;-51
2023/03/05 03:21:41;;;;;;;7.40;1.90;;;2.20;99.90;;;;;;5179973;28;20212;-52
2023/03/05 03:24:12;;;;;;;9.10;1.90;;;2.20;99.90;;;;;;5185067;28;20981;-51
2023/03/05 03:26:42;;;;;;;7.40;1.23;;;2.20;99.90;;;;;;5183026;28;20890;-51
2023/03/05 03:29:13;;;;;;;4.27;1.60;;;2.20;99.90;;;;;;5179572;28;20215;-52
2023/03/05 03:31:44;;;;;;;2.20;1.40;;;2.20;99.90;;;;;;5167010;28;20190;-52
2023/03/05 03:34:16;;;;;;;1.80;1.13;;;2.30;99.90;;;;;;5177332;28;20490;-51
2023/03/05 03:36:48;;;;;;;3.07;1.53;;;2.30;99.90;;;;;;5185368;28;20879;-51
2023/03/05 03:39:19;;;;;;;4.20;1.47;;;2.30;99.90;;;;;;5180272;28;20523;-51
2023/03/05 03:41:52;;;;;;;1.73;1.00;;;2.30;99.90;;;;;;5182328;28;21106;-51
2023/03/05 03:44:23;;;;;;;7.97;1.90;;;2.30;99.90;;;;;;5178945;28;20489;-51
2023/03/05 03:46:53;;;;;;;4.20;1.50;;;2.30;99.90;;;;;;5184235;28;20462;-51
2023/03/05 03:49:25;;;;;;;5.07;1.73;;;2.30;99.90;;;;;;5185176;28;20185;-50
2023/03/05 03:51:57;;;;;;;3.13;1.60;;;2.30;99.90;;;;;;5174810;28;20216;-52
2023/03/05 03:54:27;;;;;;;8.10;2.10;;;2.40;99.90;;;;;;5186397;28;20439;-50
2023/03/05 03:56:58;;;;;;;7.93;1.77;;;2.20;99.90;;;;;;5178029;28;20455;-51
2023/03/05 03:59:29;;;;;;;1.00;0.90;;;2.40;99.90;;;;;;5195081;28;20733;-53
2023/03/05 04:02:00;;;;;;;4.87;1.43;;;2.30;99.90;;;;;;5178862;28;20208;-52
2023/03/05 04:04:30;;;;;;;4.83;1.30;;;2.30;99.90;;;;;;5182018;28;20176;-52
2023/03/05 04:07:01;;;;;;;10.63;2.03;;;2.20;99.90;;;;;;5185012;28;20185;-52
2023/03/05 04:09:32;;;;;;;3.97;1.40;;;2.10;99.90;;;;;;5177920;28;20260;-51
2023/03/05 04:12:03;;;;;;;12.40;1.67;;;2.10;99.90;;;;;;5179590;28;20212;-51
2023/03/05 04:14:33;;;;;;;5.17;1.30;;;2.20;99.90;;;;;;5177631;28;20188;-52
2023/03/05 04:17:04;;;;;;;4.40;1.53;;;2.10;99.90;;;;;;5171227;28;20185;-52
2023/03/05 04:19:35;;;;;;;3.77;1.53;;;2.00;99.90;;;;;;5173416;28;20191;-50
2023/03/05 04:22:09;;;;;;;2.10;1.70;;;2.00;99.90;;;;;;5175510;28;20205;-51
2023/03/05 04:24:40;;;;;;;2.77;1.10;;;1.90;99.90;;;;;;5180836;28;20180;-50
2023/03/05 04:27:11;;;;;;;3.03;2.13;;;1.90;99.90;;;;;;5172306;28;20435;-50
2023/03/05 04:29:42;;;;;;;7.57;2.03;;;1.90;99.90;;;;;;5178390;28;20271;-52
2023/03/05 04:32:13;;;;;;;4.63;1.10;;;1.80;99.90;;;;;;5183116;28;20422;-52
2023/03/05 04:34:44;;;;;;;7.50;1.73;;;1.70;99.90;;;;;;5182741;28;20180;-51
2023/03/05 04:37:14;;;;;;;2.53;1.60;;;1.60;99.90;;;;;;5176949;28;20514;-51
2023/03/05 04:39:45;;;;;;;3.80;1.67;;;1.60;99.90;;;;;;5183081;28;20190;-51
2023/03/05 04:42:17;;;;;;;4.60;1.60;;;1.50;99.90;;;;;;5175818;28;20240;-52
2023/03/05 04:44:48;;;;;;;4.87;1.80;;;1.50;99.90;;;;;;5184674;28;20185;-51
2023/03/05 04:47:19;;;;;;;10.90;1.63;;;1.50;99.90;;;;;;5181212;28;20435;-52
2023/03/05 04:49:49;;;;;;;3.83;1.07;;;1.50;99.90;;;;;;5177442;28;20439;-50
2023/03/05 04:52:20;;;;;;;4.83;1.10;;;1.40;99.90;;;;;;5186438;28;20180;-52
2023/03/05 04:54:51;;;;;;;4.47;1.20;;;1.30;99.90;;;;;;5187055;28;20204;-51
2023/03/05 04:57:21;;;;;;;9.00;1.70;;;1.30;99.90;;;;;;5183668;28;20638;-52
2023/03/05 04:59:52;;;;;;;14.03;2.00;;;1.30;99.90;;;;;;5184605;28;20199;-51
2023/03/05 05:02:23;;;;;;;7.50;1.67;;;1.30;99.90;;;;;;5178474;28;20215;-51
2023/03/05 05:04:54;;;;;;;4.10;1.50;;;1.30;99.90;;;;;;5176263;28;20228;-52
2023/03/05 05:07:24;;;;;;;4.43;2.00;;;1.40;99.90;;;;;;5186003;28;20199;-51
2023/03/05 05:09:55;;;;;;;4.93;1.50;;;1.30;99.90;;;;;;5169697;28;20921;-52
2023/03/05 05:12:29;;;;;;;4.90;2.10;;;1.30;99.90;;;;;;5181332;28;20698;-52
2023/03/05 05:15:00;;;;;;;7.33;1.60;;;1.40;99.90;;;;;;5180695;28;20302;-51
2023/03/05 05:17:32;;;;;;;14.73;1.93;;;1.40;99.90;;;;;;5184140;28;20450;-51
2023/03/05 05:20:07;;;;;;;3.73;1.50;;;1.40;99.90;;;;;;5188720;28;20443;-51
2023/03/05 05:22:38;;;;;;;1.40;1.30;;;1.40;99.90;;;;;;5184307;28;20463;-51
2023/03/05 05:25:09;;;;;;;3.67;1.00;;;1.40;99.90;;;;;;5181915;28;20454;-51
2023/03/05 05:27:40;;;;;;;6.83;2.03;;;1.50;99.90;;;;;;5181827;28;20368;-52
2023/03/05 05:30:11;;;;;;;4.60;1.00;;;1.40;99.90;;;;;;5182992;28;20548;-52
2023/03/05 05:32:42;;;;;;;5.47;1.20;;;1.30;99.90;;;;;;5186261;28;20238;-51
2023/03/05 05:35:12;;;;;;;11.80;2.10;;;1.30;99.90;;;;;;5184589;28;20447;-52
2023/03/05 05:37:43;;;;;;;6.40;1.87;;;1.20;99.90;;;;;;5194239;28;20199;-52
2023/03/05 05:40:14;;;;;;;4.73;1.80;;;1.20;99.90;;;;;;5182540;28;20184;-52
2023/03/05 05:42:45;;;;;;;6.90;1.70;;;1.10;99.90;;;;;;5183122;28;20201;-52
2023/03/05 05:45:15;;;;;;;4.23;1.40;;;1.10;99.90;;;;;;5168505;28;20256;-52
2023/03/05 05:47:46;;;;;;;6.03;1.90;;;1.00;99.90;;;;;;5198149;28;20208;-53
2023/03/05 05:50:18;;;;;;;5.07;1.23;;;1.10;99.90;;;;;;5185467;28;20652;-52
2023/03/05 05:52:50;;;;;;;15.83;1.63;;;1.10;99.90;;;;;;5159222;28;20200;-52
2023/03/05 05:55:21;;;;;;;4.13;1.57;;;1.10;99.90;;;;;;5185954;28;20537;-51
2023/03/05 05:57:52;;;;;;;6.60;1.77;;;1.00;99.90;;;;;;5187253;28;20892;-51
2023/03/05 06:00:23;;;;;;;6.30;1.37;;;1.10;99.90;;;;;;5185151;28;20215;-51
2023/03/05 06:02:53;;;;;;;6.87;2.27;;;1.10;99.90;;;;;;5191489;28;20307;-51
2023/03/05 06:05:24;;;;;;;8.43;0.80;;;1.20;99.90;;;;;;5174134;28;20192;-51
2023/03/05 06:07:54;;;;;;;8.80;1.90;;;1.30;99.90;;;;;;5184004;28;20185;-51
2023/03/05 06:10:26;;;;;;;5.10;1.10;;;1.40;99.90;;;;;;5186907;28;20640;-52
2023/03/05 06:12:56;;;;;;;5.93;2.17;;;1.60;99.90;;;;;;5182180;28;20690;-51
2023/03/05 06:15:27;;;;;;;6.00;2.17;;;1.60;99.90;;;;;;5185883;28;20487;-52
2023/03/05 06:17:59;;;;;;;8.47;1.83;;;1.60;99.90;;;;;;5178511;28;20188;-52
2023/03/05 06:20:29;;;;;;;5.03;1.20;;;1.60;99.90;;;;;;5185424;28;20188;-51
2023/03/05 06:23:00;;;;;;;10.67;1.83;;;1.60;99.90;;;;;;5179755;28;20470;-50
2023/03/05 06:25:31;;;;;;;9.27;2.13;;;1.70;99.90;;;;;;5181174;28;20206;-51
2023/03/05 06:28:01;;;;;;;6.43;1.50;;;1.90;99.90;;;;;;5173716;28;20177;-51
2023/03/05 06:30:32;;;;;;;1.90;1.80;;;1.90;99.90;;;;;;5181801;28;20188;-52
2023/03/05 06:33:02;;;;;;;7.47;1.70;;;1.90;99.90;;;;;;5181203;28;20192;-50
2023/03/05 06:35:33;;;;;;;6.40;1.60;;;1.90;99.90;;;;;;5193710;28;20212;-52
2023/03/05 06:38:04;;;;;;;3.73;1.40;;;2.10;99.90;;;;;;5175951;28;20207;-52
2023/03/05 06:40:38;;;;;;;4.80;1.53;;;2.30;99.90;;;;;;5181566;28;20215;-52
2023/03/05 06:43:08;;;;;;;2.07;1.40;;;3.10;99.90;;;;;;5178811;28;20208;-52
2023/03/05 06:45:39;;;;;;;16.63;2.10;;;4.40;99.90;;;;;;5168580;28;20537;-52
2023/03/05 06:48:10;;;;;;;5.90;1.77;;;5.50;99.90;;;;;;5179311;28;20211;-50
2023/03/05 06:50:41;;;;;;;7.60;1.37;;;6.00;99.90;;;;;;5180508;28;20177;-52
2023/03/05 06:53:11;;;;;;;1.23;1.13;;;6.00;99.90;;;;;;5173495;28;20428;-53
2023/03/05 06:55:42;;;;;;;5.03;1.27;;;5.40;99.90;;;;;;5174831;28;20300;-52
2023/03/05 06:58:13;;;;;;;4.20;1.90;;;4.70;99.90;;;;;;5186806;28;20230;-52
2023/03/05 07:00:43;;;;;;;6.67;1.80;;;4.10;99.90;;;;;;5178136;28;20181;-52
2023/03/05 07:03:14;;;;;;;7.20;1.60;;;4.00;99.90;;;;;;5169758;28;20212;-52
2023/03/05 07:05:45;;;;;;;5.00;0.90;;;3.80;99.90;;;;;;5169535;28;20288;-51
2023/03/05 07:08:16;;;;;;;4.57;1.87;;;3.60;99.90;;;;;;5181365;28;20184;-51
2023/03/05 07:10:46;;;;;;;4.80;1.40;;;3.70;99.90;;;;;;5182121;28;20447;-51
2023/03/05 07:13:17;;;;;;;7.40;1.50;;;3.80;99.90;;;;;;5180734;28;20210;-50
2023/03/05 07:15:48;;;;;;;2.40;1.30;;;3.90;99.90;;;;;;5182113;28;20204;-52
2023/03/05 07:18:19;;;;;;;5.10;1.33;;;4.10;99.90;;;;;;5181825;28;20185;-51
2023/03/05 07:20:49;;;;;;;3.77;1.47;;;4.30;99.90;;;;;;5183475;28;20671;-52
2023/03/05 07:23:20;;;;;;;4.93;1.43;;;4.30;99.90;;;;;;5181979;28;20470;-52
2023/03/05 07:25:51;;;;;;;7.00;1.40;;;4.20;99.90;;;;;;5182208;28;20202;-50
2023/03/05 07:28:22;;;;;;;3.67;1.03;;;4.00;99.90;;;;;;5181541;28;20177;-50
2023/03/05 07:31:01;;;;;;;10.90;2.20;;;3.80;99.90;;;;;;5182777;28;20893;-50
2023/03/05 07:33:33;;;;;;;2.60;1.03;;;3.50;99.90;;;;;;5182402;28;20439;-51
2023/03/05 07:36:07;;;;;;;4.93;1.60;;;3.50;99.90;;;;;;5182403;28;20471;-52
2023/03/05 07:38:38;;;;;;;2.20;1.27;;;3.40;99.90;;;;;;5182494;28;20506;-51
2023/03/05 07:41:11;;;;;;;3.10;1.43;;;3.40;99.90;;;;;;5181881;28;20431;-52
2023/03/05 07:43:43;;;;;;;0.70;0.70;;;3.50;99.90;;;;;;5180669;28;20431;-51
2023/03/05 07:46:16;;;;;;;4.70;1.30;;;3.60;99.90;;;;;;5180907;28;20467;-53
2023/03/05 07:48:46;;;;;;;3.33;1.23;;;3.70;99.90;;;;;;5181627;28;20446;-50
2023/03/05 07:51:18;;;;;;;7.20;1.57;;;3.70;99.90;;;;;;5183754;28;20429;-50
2023/03/05 07:53:50;;;;;;;8.90;1.50;;;3.70;99.90;;;;;;5183787;28;20192;-52
2023/03/05 07:56:35;;;;;;;2.13;1.30;;;3.80;99.90;;;;;;5181199;28;20538;-50
2023/03/05 07:59:07;;;;;;;7.37;1.60;;;4.00;99.90;;;;;;5182122;28;20452;-53
2023/03/05 08:01:39;;;;;;;3.70;1.07;;;4.20;99.90;;;;;;5182476;28;20462;-52
2023/03/05 08:04:09;;;;;;;2.97;1.37;;;4.50;99.90;;;;;;5182459;28;20435;-51
2023/03/05 08:06:40;;;;;;;3.13;1.30;;;4.60;99.90;;;;;;5186138;28;20643;-51
2023/03/05 08:09:12;;;;;;;3.77;1.20;;;4.60;99.90;;;;;;5186858;28;20693;-51
2023/03/05 08:11:42;;;;;;;3.57;1.30;;;4.40;99.90;;;;;;5187745;28;20512;-51
2023/03/05 08:14:13;;;;;;;5.87;1.80;;;4.50;99.90;;;;;;5176654;28;20455;-51
2023/03/05 08:16:45;;;;;;;2.70;1.57;;;4.40;99.90;;;;;;5184334;28;20212;-52
2023/03/05 08:19:16;;;;;;;5.27;1.30;;;4.20;99.90;;;;;;5185324;28;20189;-52
2023/03/05 08:21:47;;;;;;;4.43;1.10;;;4.10;99.90;;;;;;5200987;28;20469;-52
2023/03/05 08:24:17;;;;;;;6.80;1.77;;;4.20;99.90;;;;;;5176073;28;20677;-50
2023/03/05 08:26:48;;;;;;;3.23;1.47;;;4.40;99.90;;;;;;5172207;28;20475;-51
2023/03/05 08:29:18;;;;;;;3.70;2.03;;;4.50;99.90;;;;;;5183087;28;20192;-53
2023/03/05 08:31:52;;;;;;;8.03;1.33;;;4.70;99.90;;;;;;5174508;28;20195;-50
2023/03/05 08:34:23;;;;;;;3.70;0.87;;;4.90;99.90;;;;;;5177748;28;20654;-52
2023/03/05 08:36:53;;;;;;;2.43;1.17;;;4.90;99.90;;;;;;5178518;28;20480;-53
2023/03/05 08:39:24;;;;;;;2.77;0.77;;;5.20;99.90;;;;;;5181590;28;20546;-51
2023/03/05 08:41:55;;;;;;;2.07;0.90;;;5.00;99.90;;;;;;5184880;28;20572;-50
2023/03/05 08:44:26;;;;;;;4.00;1.17;;;4.70;99.90;;;;;;5178668;28;20507;-53
2023/03/05 08:46:56;;;;;;;7.90;1.57;;;4.50;99.90;;;;;;5179099;28;20297;-53
2023/03/05 08:49:27;;;;;;;4.33;1.40;;;4.40;99.90;;;;;;5172708;28;20193;-54
2023/03/05 08:51:58;;;;;;;1.50;1.23;;;4.00;99.90;;;;;;5177260;28;20185;-53
2023/03/05 08:54:29;;;;;;;3.17;1.30;;;3.90;99.90;;;;;;5181396;28;20610;-54
2023/03/05 08:57:00;;;;;;;7.73;1.37;;;3.80;99.90;;;;;;5172485;28;20202;-53
2023/03/05 08:59:30;;;;;;;1.83;0.93;;;4.20;99.90;;;;;;5175873;28;20284;-54
2023/03/05 09:02:02;;;;;;;5.03;1.30;;;4.70;99.90;;;;;;5176793;28;20959;-52
2023/03/05 09:04:32;;;;;;;6.37;1.43;;;5.10;97.90;;;;;;5181645;28;20182;-53
2023/03/05 09:07:03;;;;;;;3.63;1.23;;;5.10;96.40;;;;;;5190042;28;20451;-53
2023/03/05 09:09:35;;;;;;;5.73;1.30;;;5.00;95.80;;;;;;5180161;28;20606;-53
2023/03/05 09:12:06;;;;;;;5.43;1.20;;;5.20;95.40;;;;;;5179139;28;20445;-53
2023/03/05 09:14:36;;;;;;;2.43;1.37;;;5.40;93.30;;;;;;5183292;28;20463;-52
2023/03/05 09:17:08;;;;;;;4.57;1.40;;;5.60;90.70;;;;;;5182564;28;20440;-52
2023/03/05 09:19:38;;;;;;;6.23;1.40;;;5.80;86.60;;;;;;5182097;28;20195;-53
2023/03/05 09:22:09;;;;;;;1.90;1.23;;;5.50;83.10;;;;;;5175974;28;20477;-52
2023/03/05 09:24:40;;;;;;;1.60;0.90;;;5.60;84.20;;;;;;5182683;28;20194;-52
2023/03/05 09:27:10;;;;;;;3.50;0.97;;;5.80;79.80;;;;;;5176507;28;20198;-52
2023/03/05 09:29:41;;;;;;;3.13;1.17;;;5.50;76.70;;;;;;5175162;28;20194;-53
2023/03/05 09:32:12;;;;;;;2.03;1.50;;;5.20;77.90;;;;;;5174870;28;20605;-51
2023/03/05 09:34:43;;;;;;;2.10;0.93;;;5.10;78.50;;;;;;5175528;28;20256;-53
2023/03/05 09:37:13;;;;;;;2.73;1.40;;;5.00;79.30;;;;;;5172577;28;20223;-52
2023/03/05 09:39:44;;;;;;;2.57;1.53;;;4.70;80.80;;;;;;5176568;28;20184;-51
2023/03/05 09:42:33;;;;;;;1.97;1.13;;;4.70;84.00;;;;;;5179012;28;20601;-52
2023/03/05 09:45:25;;;;;;;3.20;1.23;;;4.70;88.30;;;;;;5175439;28;20571;-52
2023/03/05 09:48:19;;;;;;;1.83;1.00;;;4.80;89.80;;;;;;5175485;28;20475;-52
2023/03/05 09:50:57;;;;;;;4.57;1.50;;;4.90;90.00;;;;;;5186049;28;20537;-52
2023/03/05 09:53:30;;;;;;;2.13;1.43;;;4.70;90.00;;;;;;5184082;28;20506;-51
2023/03/05 09:56:11;;;;;;;3.30;1.20;;;4.40;92.40;;;;;;5181111;28;20578;-51
2023/03/05 09:58:42;;;;;;;2.57;1.50;;;4.50;93.80;;;;;;5173353;28;20456;-52
2023/03/05 10:01:27;;;;;;;5.00;1.13;;;4.60;92.60;;;;;;5177819;28;20446;-52
2023/03/05 10:04:01;;;;;;;3.50;1.47;;;4.70;89.50;;;;;;5176481;28;20436;-53
2023/03/05 10:06:35;;;;;;;2.90;1.30;;;5.00;88.00;;;;;;5160152;28;20454;-52
2023/03/05 10:09:09;;;;;;;0.90;0.90;;;5.10;85.70;;;;;;5183943;28;20799;-52
2023/03/05 10:11:53;;;;;;;2.87;1.10;;;5.50;84.00;;;;;;5173235;28;20452;-53
2023/03/05 10:14:30;;;;;;;6.27;1.20;;;5.40;80.60;;;;;;5179811;28;20471;-53
2023/03/05 10:17:33;;;;;;;6.23;2.40;;;5.30;79.90;;;;;;5179109;28;20496;-53
2023/03/05 10:20:42;;;;;;;2.67;1.40;;;5.10;81.20;;;;;;5175889;28;20442;-52
2023/03/05 10:23:46;;;;;;;1.10;1.00;;;4.90;80.10;;;;;;5156559;28;20530;-52
2023/03/05 10:26:50;;;;;;;1.83;1.10;;;4.90;82.40;;;;;;5148552;28;20463;-51
2023/03/05 10:30:01;;;;;;;2.03;0.90;;;5.10;83.00;;;;;;5178714;28;20788;-51
2023/03/05 10:33:06;;;;;;;3.23;2.23;;;5.30;80.10;;;;;;5176285;28;20440;-52
2023/03/05 10:35:49;;;;;;;2.27;1.43;;;5.50;78.30;;;;;;5171400;28;20473;-51
2023/03/05 10:38:39;;;;;;;1.67;1.57;;;5.30;78.20;;;;;;5176297;28;21443;-51
2023/03/05 10:41:24;;;;;;;5.63;2.60;;;5.30;78.20;;;;;;5178765;28;20443;-53
2023/03/05 10:44:00;;;;;;;1.27;1.20;;;5.00;79.30;;;;;;5173880;28;20445;-51
2023/03/05 10:46:35;;;;;;;5.50;1.73;;;4.90;81.40;;;;;;5178055;28;20990;-51
2023/03/05 10:49:14;;;;;;;1.90;1.43;;;4.80;84.70;;;;;;5180882;28;20428;-52
2023/03/05 10:51:52;;;;;;;2.47;1.10;;;4.60;90.30;;;;;;5177165;28;20464;-52
2023/03/05 10:54:30;;;;;;;3.37;1.20;;;4.70;91.80;;;;;;5181564;28;20454;-53
2023/03/05 10:57:20;;;;;;;4.40;1.47;;;4.90;92.10;;;;;;5177281;28;20522;-52
2023/03/05 11:00:00;;;;;;;1.47;1.23;;;5.00;91.90;;;;;;5179169;28;20517;-52
2023/03/05 11:02:32;;;;;;;3.33;1.87;;;4.90;91.20;;;;;;5180198;28;20471;-52
2023/03/05 11:05:03;;;;;;;4.87;1.70;;;5.00;91.20;;;;;;5174660;28;20543;-53
2023/03/05 11:07:36;;;;;;;5.70;2.30;;;5.20;91.20;;;;;;5174010;28;20462;-53
2023/03/05 11:10:16;;;;;;;6.07;2.50;;;5.70;89.20;;;;;;5171785;28;20447;-54
2023/03/05 11:12:47;;;;;;;5.33;2.53;;;5.70;85.60;;;;;;5171401;28;20510;-52
2023/03/05 11:15:29;;;;;;;10.20;2.50;;;5.40;86.60;;;;;;5172882;28;20470;-52
2023/03/05 11:18:20;;;;;;;2.53;2.10;;;5.40;89.00;;;;;;5179912;28;20198;-53
2023/03/05 11:20:50;;;;;;;4.87;2.20;;;5.50;88.40;;;;;;5176934;28;20446;-52
2023/03/05 11:23:23;;;;;;;8.67;3.70;;;5.40;89.30;;;;;;5179618;28;20472;-53
2023/03/05 11:26:10;;;;;;;7.37;2.33;;;5.20;90.20;;;;;;5187530;28;20569;-51
2023/03/05 11:29:03;;;;;;;2.90;2.40;;;5.60;90.70;;;;;;5178991;28;20438;-52
2023/03/05 11:31:34;;;;;;;3.60;2.40;;;5.50;90.70;;;;;;5172797;28;20799;-50
2023/03/05 11:34:17;;;;;;;3.13;1.87;;;5.60;91.20;;;;;;5172578;28;23384;-53
2023/03/05 11:36:54;;;;;;;6.73;2.93;;;5.50;91.40;;;;;;5168618;28;20215;-54
2023/03/05 11:39:26;;;;;;;12.70;2.07;;;5.40;91.90;;;;;;5175527;28;20437;-52
2023/03/05 11:42:23;;;;;;;3.00;2.40;;;5.40;92.50;;;;;;5179866;28;20545;-52
2023/03/05 11:44:55;;;;;;;4.07;2.50;;;5.10;93.70;;;;;;5180499;28;20466;-51
2023/03/05 11:47:44;;;;;;;4.00;1.73;;;4.90;95.40;;;;;;5178235;28;20938;-53
2023/03/05 11:50:15;;;;;;;8.30;4.90;;;4.80;97.50;;;;;;5179579;28;20443;-52
2023/03/05 11:52:47;;;;;;;3.07;2.17;;;5.00;98.60;;;;;;5175919;28;20461;-53
2023/03/05 11:55:19;;;;;;;5.07;2.27;;;5.30;98.00;;;;;;5181028;28;20210;-53
2023/03/05 11:58:20;;;;;;;3.40;2.13;;;5.40;96.20;;;;;;5177186;28;20446;-53
2023/03/05 12:00:51;;;;;;;13.60;3.20;;;5.30;96.20;;;;;;5179969;28;20442;-53
2023/03/05 12:03:35;;;;;;;6.60;3.27;;;5.40;97.00;;;;;;5176085;28;20998;-52
2023/03/05 12:06:22;;;;;;;4.47;2.43;;;5.40;97.50;;;;;;5178386;28;20454;-54
2023/03/05 12:08:56;;;;;;;3.10;1.90;;;5.70;96.10;;;;;;5178621;28;20442;-52
2023/03/05 12:11:30;;;;;;;4.60;2.80;;;5.80;95.00;;;;;;5185232;28;20457;-52
2023/03/05 12:14:24;;;;;;;3.50;2.10;;;5.90;94.90;;;;;;5185965;28;20449;-52
2023/03/05 12:17:11;;;;;;;2.07;1.77;;;6.00;91.20;;;;;;5182833;28;20987;-51
2023/03/05 12:20:07;;;;;;;6.23;3.90;;;6.20;86.30;;;;;;5179856;28;20756;-53
2023/03/05 12:22:40;;;;;;;5.43;3.50;;;6.40;86.50;;;;;;5185398;28;20479;-53
2023/03/05 12:25:46;;;;;;;3.10;2.30;;;6.60;83.50;;;;;;5181192;28;20996;-52
2023/03/05 12:28:40;;;;;;;2.40;2.20;;;6.40;82.20;;;;;;5179785;28;20439;-53
2023/03/05 12:31:36;;;;;;;4.63;3.73;;;6.20;80.30;;;;;;5178950;28;20459;-53
2023/03/05 12:34:38;;;;;;;7.17;2.30;;;5.80;79.40;;;;;;5182392;28;20446;-50
2023/03/05 12:37:13;;;;;;;7.13;2.50;;;5.60;83.50;;;;;;5185225;28;20516;-52
2023/03/05 12:39:43;;;;;;;3.87;2.13;;;5.70;82.80;;;;;;5180799;28;20973;-51
2023/03/05 12:42:30;;;;;;;2.93;1.87;;;6.00;80.80;;;;;;5183892;28;20477;-50
2023/03/05 12:45:15;;;;;;;5.33;2.77;;;6.10;76.20;;;;;;5182447;28;20292;-52
2023/03/05 12:47:55;;;;;;;4.87;2.23;;;6.20;73.30;;;;;;5178856;28;20440;-54
2023/03/05 12:50:26;;;;;;;13.77;4.03;;;6.10;73.90;;;;;;5183053;28;20427;-51
2023/03/05 12:52:56;;;;;;;3.73;2.90;;;6.20;74.50;;;;;;5171905;28;20438;-51
2023/03/05 12:55:33;;;;;;;5.60;1.10;;;6.40;75.20;;;;;;5181152;28;20207;-53
2023/03/05 12:58:27;;;;;;;7.60;2.00;;;6.20;76.40;;;;;;5185308;28;20207;-52
2023/03/05 13:01:22;;;;;;;2.63;2.30;;;6.50;77.20;;;;;;5175259;28;20563;-50
2023/03/05 13:03:56;;;;;;;1.63;1.47;;;6.30;76.40;;;;;;5179999;28;20502;-52
2023/03/05 13:06:32;;;;;;;14.43;3.90;;;6.00;76.90;;;;;;5186154;28;20438;-50
2023/03/05 13:09:23;;;;;;;8.53;2.00;;;5.90;77.30;;;;;;5185149;28;20438;-52
2023/03/05 13:11:55;;;;;;;1.90;1.40;;;6.10;74.80;;;;;;5184179;28;20427;-51
2023/03/05 13:14:33;;;;;;;1.50;1.20;;;5.90;75.40;;;;;;5186156;28;20518;-51
2023/03/05 13:17:34;;;;;;;1.87;1.77;;;5.70;73.80;;;;;;5184001;28;20435;-52
2023/03/05 13:20:36;;;;;;;1.93;1.67;;;5.70;73.90;;;;;;5185033;28;20442;-50
2023/03/05 13:23:17;;;;;;;3.27;2.40;;;5.80;73.50;;;;;;5182880;28;20516;-53
2023/03/05 13:26:11;;;;;;;4.53;2.60;;;5.80;71.70;;;;;;5185815;28;21025;-50
2023/03/05 13:28:43;;;;;;;4.97;3.10;;;5.80;70.20;;;;;;5185081;28;20431;-50
2023/03/05 13:31:21;;;;;;;1.50;1.40;;;5.90;67.30;;;;;;5184849;28;20412;-51
2023/03/05 13:33:55;;;;;;;4.50;1.60;;;5.90;65.10;;;;;;5183801;28;20446;-52